EZY14P LPMA-LXGB
Flight info
| Callsign | EZY14P |
|---|---|
| Flight time | N/A |
| Altitude | 38000 |
| Route | DEGUN DCT NARTA/N0429F370 DCT ORTOP T100 SOVIS |
| Aircraft | A319/M-SDE3FGHIRWY/LB1 |
Departure
| Time | 2026-05-01 15:04 |
|---|---|
| Airport | Cristiano Ronaldo International Airport (LPMA) |
Arrival
| Time | N/A |
|---|---|
| Airport | Gibraltar Airport (LXGB) |
| Time | Latitude | Longitude | Altitude | Speed | Heading |
|---|---|---|---|---|---|
| 2026-05-01 14:44 | 32.69435 | -16.77553 | 177 ft | 0 kts | 137° |
| 2026-05-01 14:56 | 32.69452 | -16.77571 | 176 ft | 4 kts | 140° |
| 2026-05-01 14:56 | 32.69472 | -16.77592 | 176 ft | 4 kts | 131° |
| 2026-05-01 14:56 | 32.69483 | -16.77614 | 176 ft | 4 kts | 68° |
| 2026-05-01 14:56 | 32.69481 | -16.77619 | 176 ft | 0 kts | 46° |
| 2026-05-01 14:59 | 32.69483 | -16.77618 | 176 ft | 1 kts | 46° |
| 2026-05-01 14:59 | 32.69494 | -16.77603 | 176 ft | 5 kts | 46° |
| 2026-05-01 14:59 | 32.69529 | -16.77561 | 176 ft | 10 kts | 46° |
| 2026-05-01 15:00 | 32.69658 | -16.77401 | 176 ft | 15 kts | 46° |
| 2026-05-01 15:00 | 32.69731 | -16.77310 | 176 ft | 15 kts | 46° |
| 2026-05-01 15:00 | 32.69805 | -16.77220 | 176 ft | 15 kts | 45° |
| 2026-05-01 15:01 | 32.69904 | -16.77179 | 176 ft | 17 kts | 359° |
| 2026-05-01 15:01 | 32.70020 | -16.77169 | 176 ft | 17 kts | 25° |
| 2026-05-01 15:01 | 32.70108 | -16.77073 | 176 ft | 18 kts | 44° |
| 2026-05-01 15:01 | 32.70212 | -16.76951 | 176 ft | 24 kts | 44° |
| 2026-05-01 15:02 | 32.70347 | -16.76792 | 176 ft | 30 kts | 45° |
| 2026-05-01 15:02 | 32.70399 | -16.76732 | 176 ft | 31 kts | 44° |
| 2026-05-01 15:02 | 32.70587 | -16.76514 | 176 ft | 20 kts | 40° |
| 2026-05-01 15:02 | 32.70667 | -16.76445 | 176 ft | 12 kts | 135° |
| 2026-05-01 15:03 | 32.70624 | -16.76470 | 176 ft | 9 kts | 221° |
| 2026-05-01 15:03 | 32.70472 | -16.76648 | 176 ft | 65 kts | 224° |
| 2026-05-01 15:03 | 32.69990 | -16.77210 | 177 ft | 127 kts | 224° |
| 2026-05-01 15:03 | 32.69265 | -16.78074 | 391 ft | 155 kts | 224° |
| 2026-05-01 15:04 | 32.68468 | -16.78932 | 1061 ft | 157 kts | 214° |
| 2026-05-01 15:04 | 32.67419 | -16.79370 | 1619 ft | 168 kts | 191° |
| 2026-05-01 15:04 | 32.66157 | -16.79332 | 1929 ft | 193 kts | 178° |
| 2026-05-01 15:04 | 32.64745 | -16.79156 | 2286 ft | 217 kts | 178° |
| 2026-05-01 15:05 | 32.63165 | -16.78960 | 2772 ft | 239 kts | 177° |
| 2026-05-01 15:05 | 32.61473 | -16.78494 | 3360 ft | 264 kts | 157° |
| 2026-05-01 15:05 | 32.60113 | -16.76996 | 4238 ft | 277 kts | 121° |
| 2026-05-01 15:05 | 32.59669 | -16.74773 | 5188 ft | 286 kts | 88° |
| 2026-05-01 15:06 | 32.60152 | -16.72450 | 6095 ft | 293 kts | 73° |
| 2026-05-01 15:06 | 32.60835 | -16.70150 | 6957 ft | 299 kts | 72° |
| 2026-05-01 15:06 | 32.61535 | -16.67806 | 7789 ft | 304 kts | 72° |
| 2026-05-01 15:06 | 32.62210 | -16.65410 | 8650 ft | 308 kts | 73° |
| 2026-05-01 15:07 | 32.62852 | -16.62967 | 9508 ft | 313 kts | 74° |
| 2026-05-01 15:07 | 32.63471 | -16.60475 | 10317 ft | 318 kts | 75° |
| 2026-05-01 15:07 | 32.64096 | -16.57900 | 10632 ft | 341 kts | 73° |
| 2026-05-01 15:07 | 32.65055 | -16.55251 | 11065 ft | 356 kts | 60° |
| 2026-05-01 15:08 | 32.66491 | -16.52835 | 11731 ft | 361 kts | 45° |
| 2026-05-01 15:08 | 32.68313 | -16.50767 | 12462 ft | 365 kts | 40° |
| 2026-05-01 15:08 | 32.70180 | -16.48700 | 13207 ft | 369 kts | 40° |
| 2026-05-01 15:08 | 32.72066 | -16.46608 | 13944 ft | 373 kts | 40° |
| 2026-05-01 15:09 | 32.73972 | -16.44490 | 14567 ft | 378 kts | 40° |
| 2026-05-01 15:09 | 32.75904 | -16.42344 | 15186 ft | 382 kts | 40° |
| 2026-05-01 15:09 | 32.77860 | -16.40175 | 15790 ft | 387 kts | 40° |
| 2026-05-01 15:09 | 32.79843 | -16.37980 | 16394 ft | 392 kts | 40° |
| 2026-05-01 15:10 | 32.81851 | -16.35755 | 16993 ft | 397 kts | 40° |
| 2026-05-01 15:10 | 32.85937 | -16.31219 | 18178 ft | 406 kts | 40° |
| 2026-05-01 15:10 | 32.88016 | -16.28906 | 18737 ft | 411 kts | 40° |
| 2026-05-01 15:11 | 32.90095 | -16.26593 | 19214 ft | 416 kts | 40° |
| 2026-05-01 15:11 | 32.94365 | -16.21836 | 20289 ft | 424 kts | 40° |
| 2026-05-01 15:11 | 32.96524 | -16.19428 | 20828 ft | 427 kts | 40° |
| 2026-05-01 15:12 | 32.98699 | -16.17000 | 21371 ft | 431 kts | 40° |
| 2026-05-01 15:12 | 33.03107 | -16.12078 | 22437 ft | 437 kts | 40° |
| 2026-05-01 15:12 | 33.05336 | -16.09589 | 22967 ft | 441 kts | 40° |
| 2026-05-01 15:13 | 33.12129 | -16.01998 | 24372 ft | 451 kts | 40° |
| 2026-05-01 15:14 | 33.16702 | -15.96869 | 25194 ft | 456 kts | 39° |
| 2026-05-01 15:14 | 33.19022 | -15.94265 | 25604 ft | 460 kts | 39° |
| 2026-05-01 15:14 | 33.23708 | -15.88993 | 26376 ft | 466 kts | 39° |
| 2026-05-01 15:15 | 33.28448 | -15.83655 | 27148 ft | 471 kts | 39° |
| 2026-05-01 15:15 | 33.33241 | -15.78250 | 27907 ft | 476 kts | 39° |
| 2026-05-01 15:16 | 33.38082 | -15.72780 | 28661 ft | 481 kts | 39° |
| 2026-05-01 15:16 | 33.42970 | -15.67248 | 29394 ft | 486 kts | 39° |
| 2026-05-01 15:17 | 33.47903 | -15.61651 | 30140 ft | 491 kts | 39° |
| 2026-05-01 15:18 | 33.55419 | -15.53126 | 30951 ft | 499 kts | 39° |
| 2026-05-01 15:18 | 33.57946 | -15.50255 | 31228 ft | 502 kts | 39° |
| 2026-05-01 15:19 | 33.65545 | -15.41601 | 32164 ft | 505 kts | 39° |
| 2026-05-01 15:19 | 33.70495 | -15.35618 | 32924 ft | 508 kts | 48° |
| 2026-05-01 15:19 | 33.72679 | -15.32275 | 33301 ft | 508 kts | 49° |
| 2026-05-01 15:20 | 33.77000 | -15.25561 | 34066 ft | 507 kts | 49° |
| 2026-05-01 15:20 | 33.79161 | -15.22199 | 34412 ft | 508 kts | 49° |
| 2026-05-01 15:20 | 33.81324 | -15.18829 | 34667 ft | 509 kts | 49° |
| 2026-05-01 15:21 | 33.83485 | -15.15461 | 34954 ft | 509 kts | 49° |
| 2026-05-01 15:21 | 33.85649 | -15.12087 | 35250 ft | 509 kts | 49° |
| 2026-05-01 15:21 | 33.87814 | -15.08709 | 35542 ft | 509 kts | 49° |
| 2026-05-01 15:21 | 33.89977 | -15.05333 | 35829 ft | 509 kts | 49° |
| 2026-05-01 15:22 | 33.94406 | -14.98721 | 36378 ft | 504 kts | 39° |
| 2026-05-01 15:22 | 33.96964 | -14.95848 | 36633 ft | 502 kts | 38° |
| 2026-05-01 15:22 | 33.99527 | -14.92993 | 36892 ft | 502 kts | 38° |
| 2026-05-01 15:23 | 34.02090 | -14.90140 | 37176 ft | 501 kts | 38° |
| 2026-05-01 15:23 | 34.04651 | -14.87292 | 37435 ft | 501 kts | 38° |
| 2026-05-01 15:23 | 34.07215 | -14.84445 | 37690 ft | 500 kts | 38° |
| 2026-05-01 15:23 | 34.09743 | -14.81638 | 37949 ft | 501 kts | 38° |
| 2026-05-01 15:24 | 34.12306 | -14.78792 | 38124 ft | 502 kts | 38° |
| 2026-05-01 15:24 | 34.14871 | -14.75934 | 38160 ft | 501 kts | 38° |
| 2026-05-01 15:24 | 34.19981 | -14.70222 | 38153 ft | 501 kts | 38° |
| 2026-05-01 15:25 | 34.25087 | -14.64496 | 38156 ft | 501 kts | 38° |
| 2026-05-01 15:25 | 34.30194 | -14.58770 | 38154 ft | 501 kts | 38° |
| 2026-05-01 15:26 | 34.35298 | -14.53053 | 38157 ft | 500 kts | 38° |
| 2026-05-01 15:26 | 34.40390 | -14.47333 | 38176 ft | 500 kts | 38° |
| 2026-05-01 15:27 | 34.45484 | -14.41599 | 38167 ft | 500 kts | 38° |
| 2026-05-01 15:28 | 34.53122 | -14.32972 | 38159 ft | 500 kts | 38° |
| 2026-05-01 15:28 | 34.58215 | -14.27206 | 38159 ft | 500 kts | 38° |
| 2026-05-01 15:29 | 34.65808 | -14.18592 | 38164 ft | 500 kts | 38° |
| 2026-05-01 15:30 | 34.75986 | -14.07023 | 38156 ft | 501 kts | 38° |
| 2026-05-01 15:31 | 34.91261 | -13.89580 | 38154 ft | 502 kts | 38° |
| 2026-05-01 15:32 | 35.01439 | -13.77897 | 38166 ft | 503 kts | 38° |
| 2026-05-01 15:34 | 35.16661 | -13.60327 | 38159 ft | 503 kts | 38° |